createdAt,value
2019-01-20T00:01:34.601Z,95867.97
2019-01-20T00:04:08.253Z,95859.25
2019-01-20T00:06:41.569Z,95871.67
2019-01-20T00:09:14.484Z,95868.55
2019-01-20T00:11:46.343Z,95864.30
2019-01-20T00:14:20.303Z,95864.84
2019-01-20T00:16:51.275Z,95866.12
2019-01-20T00:19:25.218Z,95863.75
2019-01-20T00:21:56.165Z,95863.65
2019-01-20T00:24:28.662Z,95863.00
2019-01-20T00:26:59.691Z,95863.65
2019-01-20T00:29:33.371Z,95864.47
2019-01-20T00:32:07.390Z,95857.08
2019-01-20T00:34:38.437Z,95858.71
2019-01-20T00:37:11.369Z,95854.83
2019-01-20T00:39:42.460Z,95860.20
2019-01-20T00:42:13.938Z,95857.28
2019-01-20T00:44:45.130Z,95856.56
2019-01-20T00:47:16.112Z,95855.50
2019-01-20T00:49:50.306Z,95855.09
2019-01-20T00:52:24.075Z,95856.95
2019-01-20T00:55:15.853Z,95854.77
2019-01-20T00:57:52.722Z,95852.81
2019-01-20T01:00:32.084Z,95854.28
2019-01-20T01:03:04.526Z,95856.32
2019-01-20T01:05:39.062Z,95850.53
2019-01-20T01:08:11.470Z,95851.66
2019-01-20T01:10:42.505Z,95855.80
2019-01-20T01:13:15.800Z,95854.59
2019-01-20T01:15:49.711Z,95845.55
2019-01-20T01:18:20.567Z,95860.78
2019-01-20T01:20:54.541Z,95858.88
2019-01-20T01:23:27.794Z,95854.19
2019-01-20T01:26:02.341Z,95861.95
2019-01-20T01:28:33.253Z,95863.86
2019-01-20T01:31:04.625Z,95866.73
2019-01-20T01:33:35.526Z,95860.68
2019-01-20T01:36:08.461Z,95863.13
2019-01-20T01:38:39.229Z,95858.05
2019-01-20T01:41:10.372Z,95859.59
2019-01-20T01:43:44.609Z,95864.63
2019-01-20T01:46:18.270Z,95859.98
2019-01-20T01:48:49.018Z,95854.77
2019-01-20T01:51:20.213Z,95850.68
2019-01-20T01:53:51.088Z,95851.16
2019-01-20T01:56:24.244Z,95859.00
2019-01-20T01:58:55.441Z,95855.39
2019-01-20T02:01:27.272Z,95849.32
2019-01-20T02:03:59.850Z,95845.74
2019-01-20T02:06:31.580Z,95840.92
2019-01-20T02:09:07.909Z,95844.67
2019-01-20T02:11:46.980Z,95846.75
2019-01-20T02:14:16.600Z,95848.72
2019-01-20T02:16:48.587Z,95841.45
2019-01-20T02:19:21.967Z,95841.27
2019-01-20T02:21:53.881Z,95838.21
2019-01-20T02:24:24.693Z,95838.27
2019-01-20T02:26:55.567Z,95837.88
2019-01-20T02:29:26.533Z,95836.62
2019-01-20T02:31:58.092Z,95838.61
2019-01-20T02:34:29.119Z,95837.80
2019-01-20T02:37:03.082Z,95835.69
2019-01-20T02:39:35.833Z,95831.95
2019-01-20T02:42:07.657Z,95831.13
2019-01-20T02:44:38.831Z,95823.94
2019-01-20T02:47:09.742Z,95836.72
2019-01-20T02:49:40.658Z,95821.48
2019-01-20T02:52:21.413Z,95825.91
2019-01-20T02:54:53.805Z,95824.89
2019-01-20T02:57:24.705Z,95818.09
2019-01-20T02:59:58.958Z,95817.62
2019-01-20T03:02:30.099Z,95817.06
2019-01-20T03:05:01.442Z,95816.93
2019-01-20T03:07:32.270Z,95807.90
2019-01-20T03:10:09.702Z,95807.30
2019-01-20T03:12:49.363Z,95814.35
2019-01-20T03:15:20.199Z,95803.38
2019-01-20T03:17:51.503Z,95805.12
2019-01-20T03:20:29.105Z,95808.71
2019-01-20T03:23:00.788Z,95808.23
2019-01-20T03:25:34.083Z,95805.95
2019-01-20T03:28:07.619Z,95802.34
2019-01-20T03:30:40.281Z,95802.08
2019-01-20T03:33:13.235Z,95805.95
2019-01-20T03:35:44.613Z,95804.32
2019-01-20T03:38:15.487Z,95806.48
2019-01-20T03:40:46.616Z,95806.43
2019-01-20T03:43:22.688Z,95805.66
2019-01-20T03:45:57.062Z,95807.72
2019-01-20T03:48:27.940Z,95808.37
2019-01-20T03:50:59.921Z,95808.80
2019-01-20T03:53:30.673Z,95809.66
2019-01-20T03:56:04.035Z,95809.95
2019-01-20T03:58:34.832Z,95800.70
2019-01-20T04:01:09.988Z,95807.50
2019-01-20T04:03:41.484Z,95811.16
2019-01-20T04:06:16.039Z,95809.61
2019-01-20T04:08:47.665Z,95811.98
2019-01-20T04:11:19.949Z,95811.77
2019-01-20T04:13:51.012Z,95806.69
2019-01-20T04:16:23.682Z,95811.77
2019-01-20T04:18:56.311Z,95808.58
2019-01-20T04:21:27.467Z,95819.38
2019-01-20T04:23:58.433Z,95821.61
2019-01-20T04:26:29.343Z,95811.71
2019-01-20T04:29:02.618Z,95816.52
2019-01-20T04:31:36.384Z,95814.55
2019-01-20T04:34:07.462Z,95821.20
2019-01-20T04:36:38.605Z,95814.75
2019-01-20T04:39:09.882Z,95817.33
2019-01-20T04:41:41.749Z,95814.45
2019-01-20T04:44:16.018Z,95816.45
2019-01-20T04:46:46.910Z,95823.70
2019-01-20T04:49:19.152Z,95826.55
2019-01-20T04:51:50.201Z,95823.91
2019-01-20T04:54:22.966Z,95819.84
2019-01-20T04:56:53.941Z,95817.83
2019-01-20T04:59:24.782Z,95822.06
2019-01-20T05:01:56.133Z,95819.23
2019-01-20T05:04:29.049Z,95822.77
2019-01-20T05:06:59.899Z,95819.15
2019-01-20T05:09:31.990Z,95818.49
2019-01-20T05:12:03.373Z,95823.58
2019-01-20T05:14:35.943Z,95820.66
2019-01-20T05:17:06.760Z,95820.12
2019-01-20T05:19:40.087Z,95823.83
2019-01-20T05:22:11.030Z,95824.74
2019-01-20T05:24:43.998Z,95823.17
2019-01-20T05:27:17.547Z,95821.58
2019-01-20T05:29:48.446Z,95826.45
2019-01-20T05:32:19.223Z,95829.91
2019-01-20T05:34:50.721Z,95831.36
2019-01-20T05:37:21.661Z,95833.75
2019-01-20T05:39:56.490Z,95834.73
2019-01-20T05:42:29.475Z,95837.03
2019-01-20T05:45:02.933Z,95834.45
2019-01-20T05:47:36.792Z,95838.98
2019-01-20T05:50:12.191Z,95835.02
2019-01-20T05:52:44.198Z,95835.30
2019-01-20T05:55:15.117Z,95841.27
2019-01-20T05:57:48.658Z,95836.71
2019-01-20T06:00:27.660Z,95837.31
2019-01-20T06:02:58.524Z,95842.40
2019-01-20T06:05:31.700Z,95834.45
2019-01-20T06:08:05.205Z,95847.20
2019-01-20T06:10:36.241Z,95845.29
2019-01-20T06:13:07.181Z,95857.17
2019-01-20T06:15:38.521Z,95856.84
2019-01-20T06:18:10.829Z,95857.59
2019-01-20T06:20:41.913Z,95854.92
2019-01-20T06:23:13.128Z,95851.53
2019-01-20T06:25:44.801Z,95856.84
2019-01-20T06:28:16.002Z,95855.88
2019-01-20T06:30:50.616Z,95856.95
2019-01-20T06:33:21.720Z,95859.17
2019-01-20T06:35:52.920Z,95855.25
2019-01-20T06:38:27.103Z,95851.38
2019-01-20T06:41:01.555Z,95852.44
2019-01-20T06:43:38.355Z,95853.73
2019-01-20T06:46:10.228Z,95851.28
2019-01-20T06:48:41.074Z,95859.73
2019-01-20T06:51:11.963Z,95859.26
2019-01-20T06:53:44.317Z,95864.94
2019-01-20T06:56:16.889Z,95864.59
2019-01-20T06:58:52.543Z,95864.81
2019-01-20T07:01:23.369Z,95867.27
2019-01-20T07:03:54.199Z,95871.15
2019-01-20T07:06:26.547Z,95879.57
2019-01-20T07:08:57.466Z,95878.58
2019-01-20T07:11:28.399Z,95876.52
2019-01-20T07:14:02.280Z,95881.56
2019-01-20T07:16:36.543Z,95884.53
2019-01-20T07:19:07.334Z,95882.77
2019-01-20T07:21:40.705Z,95885.22
2019-01-20T07:24:14.333Z,95887.39
2019-01-20T07:26:45.191Z,95889.78
2019-01-20T07:29:16.321Z,95892.27
2019-01-20T07:31:48.496Z,95896.95
2019-01-20T07:34:20.352Z,95890.97
2019-01-20T07:37:00.431Z,95895.53
2019-01-20T07:39:31.565Z,95896.44
2019-01-20T07:42:02.670Z,95900.17
2019-01-20T07:44:38.774Z,95904.17
2019-01-20T07:47:10.416Z,95905.75
2019-01-20T07:49:43.172Z,95912.39
2019-01-20T07:52:17.289Z,95912.82
2019-01-20T07:54:55.720Z,95914.13
2019-01-20T07:57:29.372Z,95916.86
2019-01-20T08:00:05.225Z,95917.09
2019-01-20T08:02:36.116Z,95910.55
2019-01-20T08:05:10.226Z,95919.05
2019-01-20T08:07:43.252Z,95914.39
2019-01-20T08:10:16.621Z,95917.77
2019-01-20T08:12:47.819Z,95908.87
2019-01-20T08:15:24.460Z,95920.90
2019-01-20T08:17:55.858Z,95916.46
2019-01-20T08:20:29.327Z,95918.78
2019-01-20T08:23:00.189Z,95921.37
2019-01-20T08:25:35.751Z,95923.34
2019-01-20T08:28:07.713Z,95932.59
2019-01-20T08:30:39.477Z,95924.05
2019-01-20T08:33:10.733Z,95923.08
2019-01-20T08:35:42.591Z,95920.27
2019-01-20T08:38:13.421Z,95919.55
2019-01-20T08:40:52.608Z,95916.98
2019-01-20T08:43:31.723Z,95923.00
2019-01-20T08:46:42.538Z,95925.11
2019-01-20T08:49:15.249Z,95926.13
2019-01-20T08:51:46.564Z,95922.83
2019-01-20T08:54:23.242Z,95928.01
2019-01-20T08:56:55.475Z,95923.96
2019-01-20T08:59:28.129Z,95922.69
2019-01-20T09:02:01.576Z,95931.06
2019-01-20T09:04:45.574Z,95926.23
2019-01-20T09:07:16.887Z,95925.10
2019-01-20T09:09:49.011Z,95934.12
2019-01-20T09:12:34.568Z,95927.92
2019-01-20T09:15:11.069Z,95925.74
2019-01-20T09:17:41.886Z,95927.46
2019-01-20T09:20:12.978Z,95928.92
2019-01-20T09:22:46.085Z,95922.98
2019-01-20T09:25:17.244Z,95925.83
2019-01-20T09:27:48.259Z,95923.76
2019-01-20T09:30:21.078Z,95919.21
2019-01-20T09:32:53.487Z,95928.02
2019-01-20T09:35:27.433Z,95926.23
2019-01-20T09:37:58.796Z,95922.13
2019-01-20T09:40:32.280Z,95930.71
2019-01-20T09:43:04.588Z,95927.44
2019-01-20T09:45:37.437Z,95923.64
2019-01-20T09:48:08.416Z,95936.97
2019-01-20T09:51:26.273Z,95925.00
2019-01-20T09:54:04.765Z,95923.82
2019-01-20T09:56:35.993Z,95927.75
2019-01-20T09:59:09.614Z,95928.84
2019-01-20T10:02:01.446Z,95930.26
2019-01-20T10:04:35.284Z,95927.90
2019-01-20T10:07:06.106Z,95924.83
2019-01-20T10:09:37.481Z,95921.08
2019-01-20T10:12:13.495Z,95923.35
2019-01-20T10:14:44.687Z,95925.34
2019-01-20T10:17:16.932Z,95930.96
2019-01-20T10:19:47.762Z,95931.52
2019-01-20T10:22:23.630Z,95926.30
2019-01-20T10:25:03.358Z,95928.29
2019-01-20T10:27:37.098Z,95920.59
2019-01-20T10:30:28.625Z,95924.22
2019-01-20T10:33:05.418Z,95926.97
2019-01-20T10:36:14.699Z,95919.16
2019-01-20T10:38:58.370Z,95919.02
2019-01-20T10:41:30.986Z,95921.96
2019-01-20T10:44:06.827Z,95925.70
2019-01-20T10:46:42.168Z,95920.63
2019-01-20T10:49:18.815Z,95926.56
2019-01-20T10:51:54.463Z,95929.19
2019-01-20T10:54:29.628Z,95926.60
2019-01-20T10:57:01.357Z,95921.00
2019-01-20T10:59:38.681Z,95924.38
2019-01-20T11:02:17.346Z,95928.06
2019-01-20T11:04:57.270Z,95933.75
2019-01-20T11:07:25.611Z,95935.91
2019-01-20T11:09:56.608Z,95931.59
2019-01-20T11:12:27.810Z,95931.97
2019-01-20T11:15:01.922Z,95939.63
2019-01-20T11:17:36.890Z,95939.41
2019-01-20T11:20:14.623Z,95946.69
2019-01-20T11:22:45.417Z,95936.11
2019-01-20T11:25:32.527Z,95942.11
2019-01-20T11:28:06.247Z,95937.19
2019-01-20T11:30:38.126Z,95944.48
2019-01-20T11:33:16.551Z,95947.91
2019-01-20T11:35:51.331Z,95945.81
2019-01-20T11:38:22.179Z,95942.97
2019-01-20T11:40:53.452Z,95939.50
2019-01-20T11:43:26.987Z,95945.99
2019-01-20T11:45:58.234Z,95947.22
2019-01-20T11:48:33.223Z,95943.68
2019-01-20T11:51:08.074Z,95946.34
2019-01-20T11:53:40.455Z,95953.21
2019-01-20T11:56:13.859Z,95951.34
2019-01-20T11:58:46.709Z,95943.33
2019-01-20T12:01:23.620Z,95953.22
2019-01-20T12:04:01.026Z,95944.80
2019-01-20T12:06:35.670Z,95945.21
2019-01-20T12:09:23.892Z,95945.61
2019-01-20T12:11:58.899Z,95945.02
2019-01-20T12:14:29.739Z,95949.06
2019-01-20T12:17:03.590Z,95953.98
2019-01-20T12:19:34.445Z,95956.07
2019-01-20T12:22:05.265Z,95953.98
2019-01-20T12:24:38.247Z,95959.70
2019-01-20T12:27:12.398Z,95955.03
2019-01-20T12:29:52.153Z,95961.22
2019-01-20T12:32:31.201Z,95950.85
2019-01-20T12:35:05.987Z,95954.91
2019-01-20T12:37:36.829Z,95955.87
2019-01-20T12:40:11.446Z,95960.92
2019-01-20T12:42:43.897Z,95956.19
2019-01-20T12:45:15.306Z,95955.69
2019-01-20T12:47:46.353Z,95953.17
2019-01-20T12:50:19.637Z,95961.13
2019-01-20T12:52:54.268Z,95958.59
2019-01-20T12:55:25.972Z,95962.95
2019-01-20T12:58:03.873Z,95964.19
2019-01-20T13:00:45.090Z,95967.98
2019-01-20T13:03:24.848Z,95963.73
2019-01-20T13:06:03.321Z,95963.98
2019-01-20T13:08:38.058Z,95966.35
2019-01-20T13:11:09.276Z,95962.56
2019-01-20T13:13:42.302Z,95965.81
2019-01-20T13:16:13.092Z,95962.42
2019-01-20T13:18:46.701Z,95968.05
2019-01-20T13:21:27.145Z,95968.58
2019-01-20T13:24:07.908Z,95973.60
2019-01-20T13:26:40.305Z,95975.83
2019-01-20T13:29:11.275Z,95976.93
2019-01-20T13:31:54.826Z,95988.25
2019-01-20T13:34:26.124Z,95981.35
2019-01-20T13:37:07.479Z,95984.07
2019-01-20T13:39:41.810Z,95983.93
2019-01-20T13:42:13.321Z,95980.39
2019-01-20T13:44:51.835Z,95987.78
2019-01-20T13:47:23.020Z,95988.91
2019-01-20T13:49:54.043Z,95980.18
2019-01-20T13:52:27.428Z,95986.86
2019-01-20T13:55:12.922Z,95987.14
2019-01-20T13:57:45.444Z,95980.95
2019-01-20T14:00:32.180Z,95986.39
2019-01-20T14:03:03.048Z,95982.47
2019-01-20T14:05:35.736Z,95985.67
2019-01-20T14:08:09.962Z,95994.94
2019-01-20T14:10:44.899Z,95987.59
2019-01-20T14:13:16.287Z,95990.38
2019-01-20T14:15:48.468Z,95996.92
2019-01-20T14:18:19.446Z,95993.80
2019-01-20T14:20:51.382Z,95995.17
2019-01-20T14:23:24.316Z,95993.55
2019-01-20T14:25:55.312Z,95990.30
2019-01-20T14:28:26.470Z,95998.20
2019-01-20T14:30:59.118Z,95998.08
2019-01-20T14:33:31.690Z,96000.03
2019-01-20T14:36:03.839Z,96009.50
2019-01-20T14:38:38.063Z,96007.47
2019-01-20T14:41:22.672Z,96012.38
2019-01-20T14:43:56.030Z,96010.58
2019-01-20T14:46:30.045Z,96021.85
2019-01-20T14:49:17.891Z,96018.45
2019-01-20T14:51:52.365Z,96019.14
2019-01-20T14:54:28.994Z,96024.57
2019-01-20T14:57:06.450Z,96020.88
2019-01-20T14:59:37.221Z,96024.16
2019-01-20T15:02:15.422Z,96026.45
2019-01-20T15:04:46.617Z,96024.64
2019-01-20T15:07:18.057Z,96028.56
2019-01-20T15:09:49.161Z,96029.58
2019-01-20T15:12:20.737Z,96031.27
2019-01-20T15:14:51.542Z,96028.71
2019-01-20T15:17:24.029Z,96035.41
2019-01-20T15:19:57.955Z,96038.35
2019-01-20T15:22:40.077Z,96040.80
2019-01-20T15:25:14.972Z,96041.13
2019-01-20T15:27:58.418Z,96043.10
2019-01-20T15:30:31.425Z,96048.66
2019-01-20T15:33:07.614Z,96046.70
2019-01-20T15:35:41.753Z,96045.56
2019-01-20T15:38:15.480Z,96050.63
2019-01-20T15:40:46.866Z,96054.39
2019-01-20T15:43:21.447Z,96051.16
2019-01-20T15:45:52.456Z,96058.03
2019-01-20T15:48:29.970Z,96053.30
2019-01-20T15:51:05.956Z,96059.19
2019-01-20T15:53:38.703Z,96057.72
2019-01-20T15:56:13.191Z,96066.87
2019-01-20T16:01:57.454Z,96070.51
2019-01-20T16:04:28.291Z,96075.41
2019-01-20T16:07:02.523Z,96071.81
2019-01-20T16:09:38.537Z,96075.24
2019-01-20T16:12:10.387Z,96077.04
2019-01-20T16:14:41.677Z,96079.33
2019-01-20T16:17:15.581Z,96077.87
2019-01-20T16:19:56.590Z,96087.38
2019-01-20T16:22:30.524Z,96090.11
2019-01-20T16:25:13.282Z,96086.73
2019-01-20T16:27:48.629Z,96094.73
2019-01-20T16:30:22.726Z,96096.25
2019-01-20T16:32:57.179Z,96099.19
2019-01-20T16:35:28.371Z,96093.97
2019-01-20T16:38:06.872Z,96101.81
2019-01-20T16:40:44.650Z,96098.22
2019-01-20T16:43:15.950Z,96104.30
2019-01-20T16:45:48.519Z,96107.52
2019-01-20T16:48:29.595Z,96122.90
2019-01-20T16:51:08.561Z,96114.73
2019-01-20T16:53:44.879Z,96120.62
2019-01-20T16:56:15.996Z,96126.50
2019-01-20T16:58:51.409Z,96130.74
2019-01-20T17:01:24.514Z,96142.00
2019-01-20T17:03:58.296Z,96138.73
2019-01-20T17:06:31.537Z,96133.02
2019-01-20T17:09:21.928Z,96134.82
2019-01-20T17:11:54.938Z,96135.47
2019-01-20T17:14:28.062Z,96142.78
2019-01-20T17:16:59.437Z,96145.09
2019-01-20T17:19:33.279Z,96149.02
2019-01-20T17:22:06.315Z,96149.80
2019-01-20T17:24:44.286Z,96145.23
2019-01-20T17:27:15.208Z,96152.24
2019-01-20T17:29:46.414Z,96147.19
2019-01-20T17:32:17.385Z,96154.53
2019-01-20T17:34:52.593Z,96161.06
2019-01-20T17:37:27.493Z,96161.06
2019-01-20T17:40:03.188Z,96166.45
2019-01-20T17:42:41.510Z,96169.88
2019-01-20T17:45:19.739Z,96164.16
2019-01-20T17:47:50.890Z,96168.89
2019-01-20T17:50:28.491Z,96167.91
2019-01-20T17:52:59.394Z,96177.71
2019-01-20T17:55:30.316Z,96176.89
2019-01-20T17:58:18.842Z,96177.88
2019-01-20T18:00:52.858Z,96177.88
2019-01-20T18:03:24.044Z,96178.36
2019-01-20T18:05:59.391Z,96186.20
2019-01-20T18:08:30.232Z,96181.47
2019-01-20T18:11:07.035Z,96191.09
2019-01-20T18:13:43.368Z,96188.65
2019-01-20T18:16:14.491Z,96196.32
2019-01-20T18:18:53.240Z,96201.70
2019-01-20T18:21:27.067Z,96204.48
2019-01-20T18:23:59.843Z,96201.05
2019-01-20T18:26:31.510Z,96208.23
2019-01-20T18:29:10.527Z,96207.09
2019-01-20T18:31:41.896Z,96207.09
2019-01-20T18:34:13.372Z,96209.05
2019-01-20T18:36:45.628Z,96212.80
2019-01-20T18:39:23.876Z,96224.86
2019-01-20T18:42:01.310Z,96226.66
2019-01-20T18:44:35.604Z,96224.23
2019-01-20T18:47:06.616Z,96232.39
2019-01-20T18:49:40.616Z,96229.27
2019-01-20T18:52:13.313Z,96229.63
2019-01-20T18:54:44.851Z,96232.89
2019-01-20T18:57:19.103Z,96224.69
2019-01-20T18:59:51.408Z,96228.45
2019-01-20T19:02:27.765Z,96234.48
2019-01-20T19:05:00.230Z,96239.72
2019-01-20T19:07:33.318Z,96242.16
2019-01-20T19:10:06.401Z,96239.55
2019-01-20T19:12:40.721Z,96245.10
2019-01-20T19:15:15.004Z,96246.05
2019-01-20T19:17:48.055Z,96241.97
2019-01-20T19:20:26.844Z,96247.84
2019-01-20T19:22:58.058Z,96248.66
2019-01-20T19:25:28.883Z,96252.42
2019-01-20T19:27:59.921Z,96248.98
2019-01-20T19:30:32.913Z,96260.91
2019-01-20T19:33:04.541Z,96255.69
2019-01-20T19:35:35.500Z,96254.05
2019-01-20T19:38:08.001Z,96252.09
2019-01-20T19:40:41.297Z,96259.11
2019-01-20T19:43:13.697Z,96256.17
2019-01-20T19:45:48.859Z,96254.05
2019-01-20T19:48:22.380Z,96248.98
2019-01-20T19:50:53.488Z,96253.89
2019-01-20T19:53:27.551Z,96257.13
2019-01-20T19:56:01.894Z,96257.45
2019-01-20T19:58:50.951Z,96254.34
2019-01-20T20:01:22.294Z,96256.80
2019-01-20T20:03:56.449Z,96258.43
2019-01-20T20:06:30.819Z,96262.67
2019-01-20T20:09:07.190Z,96265.45
2019-01-20T20:11:52.079Z,96266.43
2019-01-20T20:14:29.179Z,96265.78
2019-01-20T20:17:00.263Z,96267.73
2019-01-20T20:19:32.709Z,96270.67
2019-01-20T20:22:06.281Z,96271.16
2019-01-20T20:24:50.570Z,96272.47
2019-01-20T20:27:24.543Z,96272.61
2019-01-20T20:29:57.559Z,96274.92
2019-01-20T20:32:29.386Z,96268.55
2019-01-20T20:35:05.718Z,96275.58
2019-01-20T20:38:01.729Z,96283.06
2019-01-20T20:40:39.463Z,96290.90
2019-01-20T20:43:13.115Z,96289.75
2019-01-20T20:45:47.562Z,96290.08
2019-01-20T20:48:28.833Z,96296.61
2019-01-20T20:51:05.292Z,96294.33
2019-01-20T20:53:36.964Z,96295.30
2019-01-20T20:56:10.803Z,96308.05
2019-01-20T20:58:44.973Z,96303.47
2019-01-20T21:01:15.994Z,96307.07
2019-01-20T21:03:47.425Z,96308.86
2019-01-20T21:06:21.661Z,96308.02
2019-01-20T21:08:53.712Z,96314.06
2019-01-20T21:11:24.598Z,96308.67
2019-01-20T21:13:55.719Z,96305.24
2019-01-20T21:16:27.574Z,96313.08
2019-01-20T21:19:08.833Z,96314.06
2019-01-20T21:21:39.667Z,96321.58
2019-01-20T21:24:16.474Z,96319.95
2019-01-20T21:26:48.678Z,96320.76
2019-01-20T21:29:19.716Z,96320.92
2019-01-20T21:31:51.445Z,96319.95
2019-01-20T21:34:22.465Z,96323.70
2019-01-20T21:37:01.720Z,96322.39
2019-01-20T21:39:32.549Z,96330.73
2019-01-20T21:42:03.774Z,96329.26
2019-01-20T21:44:37.916Z,96333.34
2019-01-20T21:47:10.248Z,96333.20
2019-01-20T21:49:42.963Z,96330.40
2019-01-20T21:52:13.765Z,96339.91
2019-01-20T21:54:48.566Z,96339.73
2019-01-20T21:57:18.943Z,96344.15
2019-01-20T21:59:49.858Z,96342.36
2019-01-20T22:02:23.822Z,96341.38
2019-01-20T22:04:54.574Z,96347.72
2019-01-20T22:07:25.692Z,96351.31
2019-01-20T22:09:59.398Z,96350.82
2019-01-20T22:12:32.340Z,96354.61
2019-01-20T22:15:04.101Z,96361.63
2019-01-20T22:17:35.921Z,96353.79
2019-01-20T22:20:07.817Z,96369.14
2019-01-20T22:22:42.174Z,96368.98
2019-01-20T22:25:13.686Z,96367.84
2019-01-20T22:27:46.358Z,96372.09
2019-01-20T22:30:22.936Z,96367.67
2019-01-20T22:32:55.432Z,96359.34
2019-01-20T22:35:35.505Z,96367.67
2019-01-20T22:38:09.336Z,96368.48
2019-01-20T22:40:40.189Z,96370.78
2019-01-20T22:43:12.698Z,96369.47
2019-01-20T22:45:45.348Z,96376.66
2019-01-20T22:48:16.372Z,96370.91
2019-01-20T22:50:54.624Z,96375.36
2019-01-20T22:53:30.004Z,96372.41
2019-01-20T22:56:01.047Z,96374.21
2019-01-20T22:58:32.411Z,96370.29
2019-01-20T23:01:16.376Z,96371.92
2019-01-20T23:03:47.280Z,96378.75
2019-01-20T23:06:19.503Z,96373.23
2019-01-20T23:08:52.959Z,96376.66
2019-01-20T23:11:23.759Z,96380.42
2019-01-20T23:13:54.544Z,96382.22
2019-01-20T23:16:28.477Z,96384.02
2019-01-20T23:19:02.113Z,96381.89
2019-01-20T23:21:35.125Z,96383.03
2019-01-20T23:24:10.912Z,96383.84
2019-01-20T23:26:42.622Z,96380.58
2019-01-20T23:29:22.349Z,96381.23
2019-01-20T23:32:01.102Z,96383.02
2019-01-20T23:34:31.971Z,96391.52
2019-01-20T23:37:04.193Z,96392.50
2019-01-20T23:39:39.270Z,96387.92
2019-01-20T23:42:13.873Z,96386.13
2019-01-20T23:44:45.926Z,96388.09
2019-01-20T23:47:17.298Z,96391.52
2019-01-20T23:49:48.435Z,96392.03
2019-01-20T23:52:19.604Z,96391.05
2019-01-20T23:54:51.739Z,96394.32
2019-01-20T23:57:22.728Z,96392.68
2019-01-20T23:59:56.691Z,96388.13
